sensor_id;sensor_type;location;lat;lon;timestamp;P1;durP1;ratioP1;P2;durP2;ratioP2
55815;SDS011;41744;52.404;16.942;2023-04-25T00:00:02;4.27;;;2.00;;
55815;SDS011;41744;52.404;16.942;2023-04-25T00:02:31;2.35;;;1.70;;
55815;SDS011;41744;52.404;16.942;2023-04-25T00:04:59;2.63;;;1.67;;
55815;SDS011;41744;52.404;16.942;2023-04-25T00:07:26;2.80;;;1.63;;
55815;SDS011;41744;52.404;16.942;2023-04-25T00:09:53;2.97;;;1.35;;
55815;SDS011;41744;52.404;16.942;2023-04-25T00:12:19;2.72;;;1.50;;
55815;SDS011;41744;52.404;16.942;2023-04-25T00:14:46;1.83;;;1.30;;
55815;SDS011;41744;52.404;16.942;2023-04-25T00:17:14;2.03;;;1.33;;
55815;SDS011;41744;52.404;16.942;2023-04-25T00:19:41;1.60;;;1.30;;
55815;SDS011;41744;52.404;16.942;2023-04-25T00:22:09;3.83;;;1.40;;
55815;SDS011;41744;52.404;16.942;2023-04-25T00:24:35;6.15;;;1.30;;
55815;SDS011;41744;52.404;16.942;2023-04-25T00:27:01;2.40;;;1.10;;
55815;SDS011;41744;52.404;16.942;2023-04-25T00:29:30;1.63;;;1.17;;
55815;SDS011;41744;52.404;16.942;2023-04-25T00:31:56;1.60;;;1.10;;
55815;SDS011;41744;52.404;16.942;2023-04-25T00:34:22;1.98;;;0.93;;
55815;SDS011;41744;52.404;16.942;2023-04-25T00:36:48;3.38;;;1.20;;
55815;SDS011;41744;52.404;16.942;2023-04-25T00:39:14;4.07;;;1.30;;
55815;SDS011;41744;52.404;16.942;2023-04-25T00:41:40;2.17;;;1.40;;
55815;SDS011;41744;52.404;16.942;2023-04-25T00:44:08;1.67;;;1.20;;
55815;SDS011;41744;52.404;16.942;2023-04-25T00:46:36;1.33;;;1.20;;
55815;SDS011;41744;52.404;16.942;2023-04-25T00:49:02;1.87;;;1.27;;
55815;SDS011;41744;52.404;16.942;2023-04-25T00:51:29;2.50;;;1.40;;
55815;SDS011;41744;52.404;16.942;2023-04-25T00:53:55;3.10;;;1.33;;
55815;SDS011;41744;52.404;16.942;2023-04-25T00:56:21;1.30;;;1.10;;
55815;SDS011;41744;52.404;16.942;2023-04-25T00:58:47;3.50;;;1.23;;
55815;SDS011;41744;52.404;16.942;2023-04-25T01:01:17;3.05;;;1.30;;
55815;SDS011;41744;52.404;16.942;2023-04-25T01:03:43;1.50;;;1.00;;
55815;SDS011;41744;52.404;16.942;2023-04-25T01:06:11;1.20;;;1.10;;
55815;SDS011;41744;52.404;16.942;2023-04-25T01:08:38;2.33;;;1.13;;
55815;SDS011;41744;52.404;16.942;2023-04-25T01:11:07;2.00;;;1.20;;
55815;SDS011;41744;52.404;16.942;2023-04-25T01:13:34;1.55;;;1.10;;
55815;SDS011;41744;52.404;16.942;2023-04-25T01:16:01;1.65;;;1.25;;
55815;SDS011;41744;52.404;16.942;2023-04-25T01:18:27;1.60;;;1.10;;
55815;SDS011;41744;52.404;16.942;2023-04-25T01:20:53;2.57;;;1.00;;
55815;SDS011;41744;52.404;16.942;2023-04-25T01:23:20;1.58;;;1.00;;
55815;SDS011;41744;52.404;16.942;2023-04-25T01:25:46;1.87;;;1.00;;
55815;SDS011;41744;52.404;16.942;2023-04-25T01:28:12;2.13;;;1.30;;
55815;SDS011;41744;52.404;16.942;2023-04-25T01:30:39;1.75;;;1.08;;
55815;SDS011;41744;52.404;16.942;2023-04-25T01:33:05;1.93;;;1.10;;
55815;SDS011;41744;52.404;16.942;2023-04-25T01:35:31;1.63;;;1.15;;
55815;SDS011;41744;52.404;16.942;2023-04-25T01:37:57;1.75;;;1.42;;
55815;SDS011;41744;52.404;16.942;2023-04-25T01:40:23;2.37;;;1.30;;
55815;SDS011;41744;52.404;16.942;2023-04-25T01:42:50;2.20;;;1.17;;
55815;SDS011;41744;52.404;16.942;2023-04-25T01:45:16;2.13;;;1.20;;
55815;SDS011;41744;52.404;16.942;2023-04-25T01:47:42;2.13;;;1.50;;
55815;SDS011;41744;52.404;16.942;2023-04-25T01:50:11;2.80;;;1.50;;
55815;SDS011;41744;52.404;16.942;2023-04-25T01:52:38;2.90;;;1.40;;
55815;SDS011;41744;52.404;16.942;2023-04-25T01:55:07;2.33;;;1.70;;
55815;SDS011;41744;52.404;16.942;2023-04-25T01:57:33;2.10;;;1.48;;
55815;SDS011;41744;52.404;16.942;2023-04-25T02:00:01;3.17;;;1.60;;
55815;SDS011;41744;52.404;16.942;2023-04-25T02:02:28;2.83;;;1.70;;
55815;SDS011;41744;52.404;16.942;2023-04-25T02:04:54;3.10;;;1.57;;
55815;SDS011;41744;52.404;16.942;2023-04-25T02:07:21;3.90;;;1.40;;
55815;SDS011;41744;52.404;16.942;2023-04-25T02:09:47;2.67;;;1.50;;
55815;SDS011;41744;52.404;16.942;2023-04-25T02:12:13;2.27;;;1.63;;
55815;SDS011;41744;52.404;16.942;2023-04-25T02:14:39;4.30;;;1.70;;
55815;SDS011;41744;52.404;16.942;2023-04-25T02:17:05;3.27;;;1.40;;
55815;SDS011;41744;52.404;16.942;2023-04-25T02:19:31;2.80;;;1.50;;
55815;SDS011;41744;52.404;16.942;2023-04-25T02:21:57;2.70;;;1.60;;
55815;SDS011;41744;52.404;16.942;2023-04-25T02:24:24;3.10;;;1.73;;
55815;SDS011;41744;52.404;16.942;2023-04-25T02:26:50;3.43;;;1.73;;
55815;SDS011;41744;52.404;16.942;2023-04-25T02:29:17;3.70;;;1.73;;
55815;SDS011;41744;52.404;16.942;2023-04-25T02:31:43;2.95;;;1.70;;
55815;SDS011;41744;52.404;16.942;2023-04-25T02:34:09;3.40;;;1.50;;
55815;SDS011;41744;52.404;16.942;2023-04-25T02:36:35;4.80;;;1.93;;
55815;SDS011;41744;52.404;16.942;2023-04-25T02:39:01;6.13;;;2.05;;
55815;SDS011;41744;52.404;16.942;2023-04-25T02:41:28;3.63;;;1.70;;
55815;SDS011;41744;52.404;16.942;2023-04-25T02:43:54;3.77;;;1.77;;
55815;SDS011;41744;52.404;16.942;2023-04-25T02:46:20;4.00;;;1.53;;
55815;SDS011;41744;52.404;16.942;2023-04-25T02:48:46;4.57;;;1.70;;
55815;SDS011;41744;52.404;16.942;2023-04-25T02:51:12;2.50;;;1.70;;
55815;SDS011;41744;52.404;16.942;2023-04-25T02:53:38;4.60;;;1.70;;
55815;SDS011;41744;52.404;16.942;2023-04-25T02:56:04;3.00;;;1.80;;
55815;SDS011;41744;52.404;16.942;2023-04-25T02:58:31;3.93;;;1.90;;
55815;SDS011;41744;52.404;16.942;2023-04-25T03:00:57;3.77;;;1.93;;
55815;SDS011;41744;52.404;16.942;2023-04-25T03:03:23;2.77;;;1.90;;
55815;SDS011;41744;52.404;16.942;2023-04-25T03:05:49;3.33;;;1.77;;
55815;SDS011;41744;52.404;16.942;2023-04-25T03:08:15;3.43;;;2.30;;
55815;SDS011;41744;52.404;16.942;2023-04-25T03:10:42;2.78;;;2.00;;
55815;SDS011;41744;52.404;16.942;2023-04-25T03:13:08;2.33;;;1.80;;
55815;SDS011;41744;52.404;16.942;2023-04-25T03:15:34;4.43;;;2.40;;
55815;SDS011;41744;52.404;16.942;2023-04-25T03:18:00;3.97;;;1.93;;
55815;SDS011;41744;52.404;16.942;2023-04-25T03:20:27;4.93;;;2.30;;
55815;SDS011;41744;52.404;16.942;2023-04-25T03:22:53;2.80;;;2.10;;
55815;SDS011;41744;52.404;16.942;2023-04-25T03:25:19;3.50;;;2.23;;
55815;SDS011;41744;52.404;16.942;2023-04-25T03:27:45;4.50;;;2.43;;
55815;SDS011;41744;52.404;16.942;2023-04-25T03:30:11;4.87;;;2.50;;
55815;SDS011;41744;52.404;16.942;2023-04-25T03:32:37;4.40;;;2.63;;
55815;SDS011;41744;52.404;16.942;2023-04-25T03:35:06;5.53;;;3.30;;
55815;SDS011;41744;52.404;16.942;2023-04-25T03:37:32;5.80;;;2.97;;
55815;SDS011;41744;52.404;16.942;2023-04-25T03:39:58;5.43;;;3.00;;
55815;SDS011;41744;52.404;16.942;2023-04-25T03:42:24;5.47;;;3.00;;
55815;SDS011;41744;52.404;16.942;2023-04-25T03:44:51;6.13;;;3.13;;
55815;SDS011;41744;52.404;16.942;2023-04-25T03:47:17;11.10;;;3.53;;
55815;SDS011;41744;52.404;16.942;2023-04-25T03:49:43;6.23;;;3.30;;
55815;SDS011;41744;52.404;16.942;2023-04-25T03:52:09;7.40;;;3.17;;
55815;SDS011;41744;52.404;16.942;2023-04-25T03:54:35;10.33;;;2.70;;
55815;SDS011;41744;52.404;16.942;2023-04-25T03:57:01;6.67;;;3.17;;
55815;SDS011;41744;52.404;16.942;2023-04-25T03:59:27;8.23;;;2.80;;
55815;SDS011;41744;52.404;16.942;2023-04-25T04:01:54;5.13;;;2.80;;
55815;SDS011;41744;52.404;16.942;2023-04-25T04:04:20;4.80;;;3.20;;
55815;SDS011;41744;52.404;16.942;2023-04-25T04:06:46;5.78;;;3.17;;
55815;SDS011;41744;52.404;16.942;2023-04-25T04:09:12;4.73;;;2.63;;
55815;SDS011;41744;52.404;16.942;2023-04-25T04:11:38;5.93;;;2.77;;
55815;SDS011;41744;52.404;16.942;2023-04-25T04:14:05;5.50;;;3.13;;
55815;SDS011;41744;52.404;16.942;2023-04-25T04:16:31;6.85;;;2.67;;
55815;SDS011;41744;52.404;16.942;2023-04-25T04:18:57;4.30;;;2.75;;
55815;SDS011;41744;52.404;16.942;2023-04-25T04:21:23;5.83;;;3.23;;
55815;SDS011;41744;52.404;16.942;2023-04-25T04:23:49;4.77;;;2.90;;
55815;SDS011;41744;52.404;16.942;2023-04-25T04:26:15;4.32;;;2.60;;
55815;SDS011;41744;52.404;16.942;2023-04-25T04:28:43;6.90;;;2.80;;
55815;SDS011;41744;52.404;16.942;2023-04-25T04:31:09;6.28;;;3.30;;
55815;SDS011;41744;52.404;16.942;2023-04-25T04:33:35;9.98;;;3.20;;
55815;SDS011;41744;52.404;16.942;2023-04-25T04:36:02;3.90;;;2.55;;
55815;SDS011;41744;52.404;16.942;2023-04-25T04:38:29;8.23;;;3.17;;
55815;SDS011;41744;52.404;16.942;2023-04-25T04:40:55;4.82;;;2.97;;
55815;SDS011;41744;52.404;16.942;2023-04-25T04:43:21;5.40;;;3.00;;
55815;SDS011;41744;52.404;16.942;2023-04-25T04:45:48;10.75;;;3.38;;
55815;SDS011;41744;52.404;16.942;2023-04-25T04:48:15;7.13;;;2.80;;
55815;SDS011;41744;52.404;16.942;2023-04-25T04:50:42;4.47;;;2.65;;
55815;SDS011;41744;52.404;16.942;2023-04-25T04:53:10;4.85;;;2.75;;
55815;SDS011;41744;52.404;16.942;2023-04-25T04:55:36;10.25;;;3.22;;
55815;SDS011;41744;52.404;16.942;2023-04-25T04:58:03;7.25;;;2.40;;
55815;SDS011;41744;52.404;16.942;2023-04-25T05:00:29;4.10;;;2.42;;
55815;SDS011;41744;52.404;16.942;2023-04-25T05:02:55;4.45;;;3.00;;
55815;SDS011;41744;52.404;16.942;2023-04-25T05:05:21;7.00;;;2.55;;
55815;SDS011;41744;52.404;16.942;2023-04-25T05:07:47;5.05;;;3.00;;
55815;SDS011;41744;52.404;16.942;2023-04-25T05:10:13;3.67;;;2.63;;
55815;SDS011;41744;52.404;16.942;2023-04-25T05:12:40;6.30;;;2.95;;
55815;SDS011;41744;52.404;16.942;2023-04-25T05:15:06;6.75;;;3.03;;
55815;SDS011;41744;52.404;16.942;2023-04-25T05:17:32;6.80;;;2.80;;
55815;SDS011;41744;52.404;16.942;2023-04-25T05:19:58;13.65;;;3.55;;
55815;SDS011;41744;52.404;16.942;2023-04-25T05:22:24;5.93;;;3.15;;
55815;SDS011;41744;52.404;16.942;2023-04-25T05:24:51;6.40;;;3.55;;
55815;SDS011;41744;52.404;16.942;2023-04-25T05:27:17;5.82;;;3.00;;
55815;SDS011;41744;52.404;16.942;2023-04-25T05:29:44;6.25;;;3.28;;
55815;SDS011;41744;52.404;16.942;2023-04-25T05:32:10;7.63;;;3.35;;
55815;SDS011;41744;52.404;16.942;2023-04-25T05:34:36;7.68;;;3.35;;
55815;SDS011;41744;52.404;16.942;2023-04-25T05:37:02;7.28;;;3.00;;
55815;SDS011;41744;52.404;16.942;2023-04-25T05:39:28;3.83;;;2.88;;
55815;SDS011;41744;52.404;16.942;2023-04-25T05:41:54;8.13;;;3.20;;
55815;SDS011;41744;52.404;16.942;2023-04-25T05:44:21;6.43;;;2.80;;
55815;SDS011;41744;52.404;16.942;2023-04-25T05:46:47;5.72;;;3.30;;
55815;SDS011;41744;52.404;16.942;2023-04-25T05:49:13;6.47;;;2.80;;
55815;SDS011;41744;52.404;16.942;2023-04-25T05:51:39;8.52;;;3.72;;
55815;SDS011;41744;52.404;16.942;2023-04-25T05:54:05;6.50;;;3.08;;
55815;SDS011;41744;52.404;16.942;2023-04-25T05:56:31;5.45;;;2.72;;
55815;SDS011;41744;52.404;16.942;2023-04-25T05:58:57;5.28;;;2.90;;
55815;SDS011;41744;52.404;16.942;2023-04-25T06:01:23;6.05;;;2.97;;
55815;SDS011;41744;52.404;16.942;2023-04-25T06:03:50;5.25;;;2.75;;
55815;SDS011;41744;52.404;16.942;2023-04-25T06:06:17;4.03;;;2.38;;
55815;SDS011;41744;52.404;16.942;2023-04-25T06:08:43;4.85;;;2.47;;
55815;SDS011;41744;52.404;16.942;2023-04-25T06:11:10;6.55;;;2.50;;
55815;SDS011;41744;52.404;16.942;2023-04-25T06:13:36;9.35;;;2.88;;
55815;SDS011;41744;52.404;16.942;2023-04-25T06:16:02;6.15;;;2.83;;
55815;SDS011;41744;52.404;16.942;2023-04-25T06:18:28;6.90;;;2.88;;
55815;SDS011;41744;52.404;16.942;2023-04-25T06:20:59;7.18;;;2.78;;
55815;SDS011;41744;52.404;16.942;2023-04-25T06:23:25;5.43;;;2.88;;
55815;SDS011;41744;52.404;16.942;2023-04-25T06:25:52;9.27;;;2.53;;
55815;SDS011;41744;52.404;16.942;2023-04-25T06:28:18;7.78;;;3.00;;
55815;SDS011;41744;52.404;16.942;2023-04-25T06:30:44;9.52;;;2.75;;
55815;SDS011;41744;52.404;16.942;2023-04-25T06:33:10;6.15;;;2.90;;
55815;SDS011;41744;52.404;16.942;2023-04-25T06:35:36;6.93;;;2.65;;
55815;SDS011;41744;52.404;16.942;2023-04-25T06:38:02;9.23;;;3.30;;
55815;SDS011;41744;52.404;16.942;2023-04-25T06:40:28;4.10;;;2.70;;
55815;SDS011;41744;52.404;16.942;2023-04-25T06:42:54;6.57;;;2.90;;
55815;SDS011;41744;52.404;16.942;2023-04-25T06:45:20;7.75;;;2.70;;
55815;SDS011;41744;52.404;16.942;2023-04-25T06:47:46;10.52;;;2.75;;
55815;SDS011;41744;52.404;16.942;2023-04-25T06:50:13;7.07;;;2.67;;
55815;SDS011;41744;52.404;16.942;2023-04-25T06:52:39;9.85;;;3.03;;
55815;SDS011;41744;52.404;16.942;2023-04-25T06:55:05;6.28;;;2.88;;
55815;SDS011;41744;52.404;16.942;2023-04-25T06:57:31;6.13;;;2.70;;
55815;SDS011;41744;52.404;16.942;2023-04-25T06:59:57;6.32;;;2.38;;
55815;SDS011;41744;52.404;16.942;2023-04-25T07:02:23;6.07;;;2.80;;
55815;SDS011;41744;52.404;16.942;2023-04-25T07:04:49;7.28;;;3.20;;
55815;SDS011;41744;52.404;16.942;2023-04-25T07:07:15;5.80;;;2.83;;
55815;SDS011;41744;52.404;16.942;2023-04-25T07:09:42;5.78;;;3.15;;
55815;SDS011;41744;52.404;16.942;2023-04-25T07:12:08;5.20;;;2.78;;
55815;SDS011;41744;52.404;16.942;2023-04-25T07:14:34;7.07;;;2.63;;
55815;SDS011;41744;52.404;16.942;2023-04-25T07:17:00;6.22;;;2.95;;
55815;SDS011;41744;52.404;16.942;2023-04-25T07:19:26;8.77;;;2.90;;
55815;SDS011;41744;52.404;16.942;2023-04-25T07:21:54;4.70;;;2.70;;
55815;SDS011;41744;52.404;16.942;2023-04-25T07:24:20;6.10;;;2.53;;
55815;SDS011;41744;52.404;16.942;2023-04-25T07:26:47;6.82;;;3.00;;
55815;SDS011;41744;52.404;16.942;2023-04-25T07:29:13;7.13;;;2.83;;
55815;SDS011;41744;52.404;16.942;2023-04-25T07:31:39;6.63;;;2.50;;
55815;SDS011;41744;52.404;16.942;2023-04-25T07:34:05;7.20;;;2.92;;
55815;SDS011;41744;52.404;16.942;2023-04-25T07:36:31;9.02;;;2.55;;
55815;SDS011;41744;52.404;16.942;2023-04-25T07:38:57;8.05;;;2.60;;
55815;SDS011;41744;52.404;16.942;2023-04-25T07:41:23;5.43;;;2.60;;
55815;SDS011;41744;52.404;16.942;2023-04-25T07:43:49;35.15;;;4.88;;
55815;SDS011;41744;52.404;16.942;2023-04-25T07:46:15;7.35;;;3.15;;
55815;SDS011;41744;52.404;16.942;2023-04-25T07:48:41;7.38;;;3.20;;
55815;SDS011;41744;52.404;16.942;2023-04-25T07:51:07;10.05;;;3.50;;
55815;SDS011;41744;52.404;16.942;2023-04-25T07:53:33;8.25;;;3.40;;
55815;SDS011;41744;52.404;16.942;2023-04-25T07:56:00;9.73;;;3.75;;
55815;SDS011;41744;52.404;16.942;2023-04-25T07:58:26;7.95;;;3.35;;
55815;SDS011;41744;52.404;16.942;2023-04-25T08:00:52;6.38;;;2.85;;
55815;SDS011;41744;52.404;16.942;2023-04-25T08:03:18;6.47;;;3.00;;
55815;SDS011;41744;52.404;16.942;2023-04-25T08:05:46;5.90;;;2.80;;
55815;SDS011;41744;52.404;16.942;2023-04-25T08:08:12;11.35;;;3.08;;
55815;SDS011;41744;52.404;16.942;2023-04-25T08:10:41;14.10;;;2.97;;
55815;SDS011;41744;52.404;16.942;2023-04-25T08:13:07;5.45;;;2.75;;
55815;SDS011;41744;52.404;16.942;2023-04-25T08:15:33;6.03;;;2.75;;
55815;SDS011;41744;52.404;16.942;2023-04-25T08:17:59;6.10;;;2.88;;
55815;SDS011;41744;52.404;16.942;2023-04-25T08:20:25;6.03;;;2.53;;
55815;SDS011;41744;52.404;16.942;2023-04-25T08:22:51;6.97;;;3.55;;
55815;SDS011;41744;52.404;16.942;2023-04-25T08:25:17;8.63;;;2.78;;
55815;SDS011;41744;52.404;16.942;2023-04-25T08:27:44;7.25;;;2.92;;
55815;SDS011;41744;52.404;16.942;2023-04-25T08:30:10;7.15;;;3.20;;
55815;SDS011;41744;52.404;16.942;2023-04-25T08:32:36;12.68;;;3.58;;
55815;SDS011;41744;52.404;16.942;2023-04-25T08:35:05;7.15;;;3.25;;
55815;SDS011;41744;52.404;16.942;2023-04-25T08:37:31;9.65;;;2.78;;
55815;SDS011;41744;52.404;16.942;2023-04-25T08:39:57;7.30;;;3.03;;
55815;SDS011;41744;52.404;16.942;2023-04-25T08:42:27;5.90;;;3.13;;
55815;SDS011;41744;52.404;16.942;2023-04-25T08:44:54;5.22;;;2.90;;
55815;SDS011;41744;52.404;16.942;2023-04-25T08:47:21;5.88;;;2.65;;
55815;SDS011;41744;52.404;16.942;2023-04-25T08:49:48;8.45;;;2.80;;
55815;SDS011;41744;52.404;16.942;2023-04-25T08:52:15;7.13;;;2.97;;
55815;SDS011;41744;52.404;16.942;2023-04-25T08:54:48;8.40;;;3.22;;
55815;SDS011;41744;52.404;16.942;2023-04-25T08:57:14;5.00;;;2.80;;
55815;SDS011;41744;52.404;16.942;2023-04-25T08:59:40;6.63;;;3.10;;
55815;SDS011;41744;52.404;16.942;2023-04-25T09:02:10;6.25;;;2.70;;
55815;SDS011;41744;52.404;16.942;2023-04-25T09:04:39;9.48;;;2.90;;
55815;SDS011;41744;52.404;16.942;2023-04-25T09:07:05;5.85;;;2.83;;
55815;SDS011;41744;52.404;16.942;2023-04-25T09:09:31;9.05;;;2.90;;
55815;SDS011;41744;52.404;16.942;2023-04-25T09:11:57;7.88;;;3.65;;
55815;SDS011;41744;52.404;16.942;2023-04-25T09:14:24;8.45;;;3.10;;
55815;SDS011;41744;52.404;16.942;2023-04-25T09:16:57;7.72;;;3.33;;
55815;SDS011;41744;52.404;16.942;2023-04-25T09:21:59;8.30;;;3.70;;
55815;SDS011;41744;52.404;16.942;2023-04-25T09:26:58;5.07;;;3.30;;
55815;SDS011;41744;52.404;16.942;2023-04-25T09:29:34;8.95;;;3.42;;
55815;SDS011;41744;52.404;16.942;2023-04-25T09:32:33;9.40;;;3.20;;
55815;SDS011;41744;52.404;16.942;2023-04-25T09:34:53;4.75;;;2.90;;
55815;SDS011;41744;52.404;16.942;2023-04-25T09:39:49;5.28;;;3.22;;
55815;SDS011;41744;52.404;16.942;2023-04-25T09:42:15;8.95;;;3.38;;
55815;SDS011;41744;52.404;16.942;2023-04-25T09:44:42;5.22;;;2.65;;
55815;SDS011;41744;52.404;16.942;2023-04-25T09:47:10;7.07;;;3.28;;
55815;SDS011;41744;52.404;16.942;2023-04-25T09:49:38;8.57;;;3.35;;
55815;SDS011;41744;52.404;16.942;2023-04-25T09:52:04;8.57;;;3.38;;
55815;SDS011;41744;52.404;16.942;2023-04-25T09:54:30;7.78;;;2.70;;
55815;SDS011;41744;52.404;16.942;2023-04-25T09:56:56;6.18;;;2.45;;
55815;SDS011;41744;52.404;16.942;2023-04-25T09:59:23;8.27;;;2.90;;
55815;SDS011;41744;52.404;16.942;2023-04-25T10:01:49;7.20;;;2.85;;
55815;SDS011;41744;52.404;16.942;2023-04-25T10:04:20;6.10;;;2.72;;
55815;SDS011;41744;52.404;16.942;2023-04-25T10:06:48;12.07;;;4.55;;
55815;SDS011;41744;52.404;16.942;2023-04-25T10:09:15;8.07;;;3.92;;
55815;SDS011;41744;52.404;16.942;2023-04-25T10:11:44;11.02;;;4.50;;
55815;SDS011;41744;52.404;16.942;2023-04-25T10:14:10;10.68;;;4.53;;
55815;SDS011;41744;52.404;16.942;2023-04-25T10:16:37;9.65;;;3.88;;
55815;SDS011;41744;52.404;16.942;2023-04-25T10:19:04;8.65;;;2.85;;
55815;SDS011;41744;52.404;16.942;2023-04-25T10:21:30;5.43;;;2.80;;
55815;SDS011;41744;52.404;16.942;2023-04-25T10:23:57;4.75;;;3.00;;
55815;SDS011;41744;52.404;16.942;2023-04-25T10:26:23;4.60;;;2.63;;
55815;SDS011;41744;52.404;16.942;2023-04-25T10:31:22;20.02;;;6.05;;
55815;SDS011;41744;52.404;16.942;2023-04-25T10:33:48;15.50;;;5.63;;
55815;SDS011;41744;52.404;16.942;2023-04-25T10:36:17;32.40;;;10.57;;
55815;SDS011;41744;52.404;16.942;2023-04-25T10:38:47;17.08;;;6.53;;
55815;SDS011;41744;52.404;16.942;2023-04-25T10:41:15;22.40;;;8.65;;
55815;SDS011;41744;52.404;16.942;2023-04-25T10:43:44;16.70;;;5.63;;
55815;SDS011;41744;52.404;16.942;2023-04-25T10:48:46;11.77;;;5.13;;
55815;SDS011;41744;52.404;16.942;2023-04-25T10:51:20;12.98;;;4.00;;
55815;SDS011;41744;52.404;16.942;2023-04-25T10:53:47;9.02;;;3.85;;
55815;SDS011;41744;52.404;16.942;2023-04-25T10:56:25;9.45;;;3.92;;
55815;SDS011;41744;52.404;16.942;2023-04-25T10:58:51;10.40;;;4.10;;
55815;SDS011;41744;52.404;16.942;2023-04-25T11:01:21;6.50;;;3.30;;
55815;SDS011;41744;52.404;16.942;2023-04-25T11:03:47;7.90;;;3.50;;
55815;SDS011;41744;52.404;16.942;2023-04-25T11:09:02;12.30;;;3.70;;
55815;SDS011;41744;52.404;16.942;2023-04-25T11:11:28;6.70;;;3.30;;
55815;SDS011;41744;52.404;16.942;2023-04-25T11:13:55;6.97;;;2.88;;
55815;SDS011;41744;52.404;16.942;2023-04-25T11:16:23;23.92;;;3.05;;
55815;SDS011;41744;52.404;16.942;2023-04-25T11:18:50;4.72;;;2.78;;
55815;SDS011;41744;52.404;16.942;2023-04-25T11:21:16;9.02;;;2.92;;
55815;SDS011;41744;52.404;16.942;2023-04-25T11:23:44;7.07;;;3.45;;
55815;SDS011;41744;52.404;16.942;2023-04-25T11:26:10;6.55;;;2.47;;
55815;SDS011;41744;52.404;16.942;2023-04-25T11:28:36;7.32;;;3.08;;
55815;SDS011;41744;52.404;16.942;2023-04-25T11:31:02;4.13;;;2.55;;
55815;SDS011;41744;52.404;16.942;2023-04-25T11:33:34;5.15;;;2.10;;
55815;SDS011;41744;52.404;16.942;2023-04-25T11:36:01;5.38;;;2.70;;
55815;SDS011;41744;52.404;16.942;2023-04-25T11:38:27;6.00;;;2.40;;
55815;SDS011;41744;52.404;16.942;2023-04-25T11:40:54;4.70;;;2.50;;
55815;SDS011;41744;52.404;16.942;2023-04-25T11:43:20;4.85;;;2.80;;
55815;SDS011;41744;52.404;16.942;2023-04-25T11:45:48;7.35;;;2.85;;
55815;SDS011;41744;52.404;16.942;2023-04-25T11:48:14;8.98;;;2.78;;
55815;SDS011;41744;52.404;16.942;2023-04-25T11:50:41;4.53;;;2.45;;
55815;SDS011;41744;52.404;16.942;2023-04-25T11:53:07;6.72;;;3.13;;
55815;SDS011;41744;52.404;16.942;2023-04-25T11:55:33;6.90;;;3.10;;
55815;SDS011;41744;52.404;16.942;2023-04-25T11:58:01;6.53;;;3.00;;
55815;SDS011;41744;52.404;16.942;2023-04-25T12:00:27;7.20;;;3.72;;
55815;SDS011;41744;52.404;16.942;2023-04-25T12:02:54;5.85;;;3.08;;
55815;SDS011;41744;52.404;16.942;2023-04-25T12:05:20;9.10;;;2.78;;
55815;SDS011;41744;52.404;16.942;2023-04-25T12:07:49;4.80;;;2.78;;
55815;SDS011;41744;52.404;16.942;2023-04-25T12:10:16;4.15;;;2.40;;
55815;SDS011;41744;52.404;16.942;2023-04-25T12:12:44;5.72;;;2.25;;
55815;SDS011;41744;52.404;16.942;2023-04-25T12:15:13;7.43;;;2.80;;
55815;SDS011;41744;52.404;16.942;2023-04-25T12:17:47;12.07;;;4.40;;
55815;SDS011;41744;52.404;16.942;2023-04-25T12:20:14;6.32;;;2.53;;
55815;SDS011;41744;52.404;16.942;2023-04-25T12:22:40;5.65;;;2.03;;
55815;SDS011;41744;52.404;16.942;2023-04-25T12:25:09;2.30;;;1.63;;
55815;SDS011;41744;52.404;16.942;2023-04-25T12:27:35;2.97;;;1.60;;
55815;SDS011;41744;52.404;16.942;2023-04-25T12:30:02;4.65;;;1.70;;
55815;SDS011;41744;52.404;16.942;2023-04-25T12:32:28;3.50;;;1.90;;
55815;SDS011;41744;52.404;16.942;2023-04-25T12:34:55;5.38;;;1.95;;
55815;SDS011;41744;52.404;16.942;2023-04-25T12:37:21;4.50;;;2.20;;
55815;SDS011;41744;52.404;16.942;2023-04-25T12:39:47;6.47;;;2.17;;
55815;SDS011;41744;52.404;16.942;2023-04-25T12:42:13;9.00;;;2.20;;
55815;SDS011;41744;52.404;16.942;2023-04-25T12:44:39;3.80;;;2.10;;
55815;SDS011;41744;52.404;16.942;2023-04-25T12:47:05;7.25;;;2.67;;
55815;SDS011;41744;52.404;16.942;2023-04-25T12:49:31;7.40;;;2.33;;
55815;SDS011;41744;52.404;16.942;2023-04-25T12:51:58;7.47;;;2.40;;
55815;SDS011;41744;52.404;16.942;2023-04-25T12:54:24;7.45;;;2.63;;
55815;SDS011;41744;52.404;16.942;2023-04-25T12:56:51;5.43;;;2.40;;
55815;SDS011;41744;52.404;16.942;2023-04-25T12:59:17;6.97;;;2.30;;
55815;SDS011;41744;52.404;16.942;2023-04-25T13:01:45;4.65;;;2.03;;
55815;SDS011;41744;52.404;16.942;2023-04-25T13:04:11;2.80;;;1.73;;
55815;SDS011;41744;52.404;16.942;2023-04-25T13:06:37;3.75;;;1.77;;
55815;SDS011;41744;52.404;16.942;2023-04-25T13:09:03;6.10;;;2.10;;
55815;SDS011;41744;52.404;16.942;2023-04-25T13:11:29;2.30;;;1.80;;
55815;SDS011;41744;52.404;16.942;2023-04-25T13:13:56;3.38;;;2.05;;
55815;SDS011;41744;52.404;16.942;2023-04-25T13:16:22;3.00;;;1.98;;
55815;SDS011;41744;52.404;16.942;2023-04-25T13:18:48;5.88;;;2.00;;
55815;SDS011;41744;52.404;16.942;2023-04-25T13:21:14;3.28;;;1.98;;
55815;SDS011;41744;52.404;16.942;2023-04-25T13:23:40;8.55;;;1.80;;
55815;SDS011;41744;52.404;16.942;2023-04-25T13:26:08;6.95;;;2.00;;
55815;SDS011;41744;52.404;16.942;2023-04-25T13:28:34;3.20;;;1.38;;
55815;SDS011;41744;52.404;16.942;2023-04-25T13:31:00;3.92;;;1.20;;
55815;SDS011;41744;52.404;16.942;2023-04-25T13:33:26;3.92;;;1.40;;
55815;SDS011;41744;52.404;16.942;2023-04-25T13:35:52;3.97;;;1.30;;
55815;SDS011;41744;52.404;16.942;2023-04-25T13:38:25;3.78;;;1.20;;
55815;SDS011;41744;52.404;16.942;2023-04-25T13:40:51;3.45;;;1.30;;
55815;SDS011;41744;52.404;16.942;2023-04-25T13:43:20;4.93;;;1.80;;
55815;SDS011;41744;52.404;16.942;2023-04-25T13:45:47;4.25;;;2.03;;
55815;SDS011;41744;52.404;16.942;2023-04-25T13:48:13;2.25;;;1.38;;
55815;SDS011;41744;52.404;16.942;2023-04-25T13:50:39;2.50;;;1.40;;
55815;SDS011;41744;52.404;16.942;2023-04-25T13:53:05;9.55;;;3.75;;
55815;SDS011;41744;52.404;16.942;2023-04-25T13:55:33;12.05;;;5.30;;
55815;SDS011;41744;52.404;16.942;2023-04-25T13:58:00;6.78;;;3.00;;
55815;SDS011;41744;52.404;16.942;2023-04-25T14:00:32;5.25;;;1.98;;
55815;SDS011;41744;52.404;16.942;2023-04-25T14:02:58;6.95;;;2.45;;
55815;SDS011;41744;52.404;16.942;2023-04-25T14:05:24;4.45;;;2.40;;
55815;SDS011;41744;52.404;16.942;2023-04-25T14:07:50;5.70;;;2.20;;
55815;SDS011;41744;52.404;16.942;2023-04-25T14:10:16;4.88;;;2.40;;
55815;SDS011;41744;52.404;16.942;2023-04-25T14:12:42;9.80;;;3.17;;
55815;SDS011;41744;52.404;16.942;2023-04-25T14:15:08;5.85;;;2.63;;
55815;SDS011;41744;52.404;16.942;2023-04-25T14:17:34;7.20;;;2.90;;
55815;SDS011;41744;52.404;16.942;2023-04-25T14:20:00;4.35;;;2.63;;
55815;SDS011;41744;52.404;16.942;2023-04-25T14:22:26;6.05;;;2.78;;
55815;SDS011;41744;52.404;16.942;2023-04-25T14:24:52;4.32;;;2.60;;
55815;SDS011;41744;52.404;16.942;2023-04-25T14:27:19;4.57;;;2.38;;
55815;SDS011;41744;52.404;16.942;2023-04-25T14:29:45;3.97;;;1.95;;
55815;SDS011;41744;52.404;16.942;2023-04-25T14:32:11;3.92;;;2.50;;
55815;SDS011;41744;52.404;16.942;2023-04-25T14:34:37;3.78;;;2.35;;
55815;SDS011;41744;52.404;16.942;2023-04-25T14:37:03;3.13;;;1.92;;
55815;SDS011;41744;52.404;16.942;2023-04-25T14:39:29;3.85;;;2.05;;
55815;SDS011;41744;52.404;16.942;2023-04-25T14:41:55;4.20;;;2.13;;
55815;SDS011;41744;52.404;16.942;2023-04-25T14:44:21;3.25;;;1.88;;